sensor_id;sensor_type;location;lat;lon;timestamp;pressure;altitude;pressure_sealevel;temperature;humidity
56719;BME280;42597;40.636;0.278;2023-05-18T00:00:22;97364.22;;;16.39;49.82
56719;BME280;42597;40.636;0.278;2023-05-18T00:02:48;97357.22;;;16.38;48.62
56719;BME280;42597;40.636;0.278;2023-05-18T00:05:15;97364.94;;;16.28;48.06
56719;BME280;42597;40.636;0.278;2023-05-18T00:07:43;97362.44;;;16.61;47.74
56719;BME280;42597;40.636;0.278;2023-05-18T00:10:09;97356.75;;;16.84;47.00
56719;BME280;42597;40.636;0.278;2023-05-18T00:12:35;97364.44;;;16.67;45.20
56719;BME280;42597;40.636;0.278;2023-05-18T00:15:01;97366.59;;;16.99;47.85
56719;BME280;42597;40.636;0.278;2023-05-18T00:17:26;97363.88;;;16.99;44.23
56719;BME280;42597;40.636;0.278;2023-05-18T00:19:52;97364.56;;;16.82;43.56
56719;BME280;42597;40.636;0.278;2023-05-18T00:22:18;97359.94;;;16.93;44.43
56719;BME280;42597;40.636;0.278;2023-05-18T00:24:47;97363.81;;;16.92;44.77
56719;BME280;42597;40.636;0.278;2023-05-18T00:27:13;97357.53;;;16.84;45.19
56719;BME280;42597;40.636;0.278;2023-05-18T00:29:39;97363.16;;;17.09;45.42
56719;BME280;42597;40.636;0.278;2023-05-18T00:32:05;97360.75;;;17.04;45.53
56719;BME280;42597;40.636;0.278;2023-05-18T00:34:31;97357.75;;;17.27;45.80
56719;BME280;42597;40.636;0.278;2023-05-18T00:36:57;97362.44;;;17.30;43.38
56719;BME280;42597;40.636;0.278;2023-05-18T00:39:22;97353.88;;;16.62;42.96
56719;BME280;42597;40.636;0.278;2023-05-18T00:41:48;97359.78;;;16.71;45.64
56719;BME280;42597;40.636;0.278;2023-05-18T00:44:13;97360.81;;;17.11;45.28
56719;BME280;42597;40.636;0.278;2023-05-18T00:46:39;97353.00;;;17.06;44.34
56719;BME280;42597;40.636;0.278;2023-05-18T00:49:05;97352.16;;;16.98;46.18
56719;BME280;42597;40.636;0.278;2023-05-18T00:51:32;97356.81;;;16.91;44.21
56719;BME280;42597;40.636;0.278;2023-05-18T00:53:58;97357.53;;;16.81;43.28
56719;BME280;42597;40.636;0.278;2023-05-18T00:56:25;97359.38;;;16.69;43.13
56719;BME280;42597;40.636;0.278;2023-05-18T00:58:52;97350.88;;;16.74;43.37
56719;BME280;42597;40.636;0.278;2023-05-18T01:01:32;97346.59;;;16.73;44.04
56719;BME280;42597;40.636;0.278;2023-05-18T01:04:02;97346.81;;;17.23;44.47
56719;BME280;42597;40.636;0.278;2023-05-18T01:06:32;97343.00;;;17.46;46.57
56719;BME280;42597;40.636;0.278;2023-05-18T01:09:01;97338.03;;;16.82;42.92
56719;BME280;42597;40.636;0.278;2023-05-18T01:11:47;97340.94;;;16.52;43.64
56719;BME280;42597;40.636;0.278;2023-05-18T01:14:36;97342.91;;;17.24;45.70
56719;BME280;42597;40.636;0.278;2023-05-18T01:22:58;97330.25;;;16.84;43.85
56719;BME280;42597;40.636;0.278;2023-05-18T01:25:39;97340.19;;;16.55;44.06
56719;BME280;42597;40.636;0.278;2023-05-18T01:28:14;97337.50;;;16.07;44.63
56719;BME280;42597;40.636;0.278;2023-05-18T01:30:42;97342.91;;;16.55;45.27
56719;BME280;42597;40.636;0.278;2023-05-18T01:33:09;97332.44;;;16.64;46.43
56719;BME280;42597;40.636;0.278;2023-05-18T01:35:36;97327.63;;;16.36;43.20
56719;BME280;42597;40.636;0.278;2023-05-18T01:38:02;97329.75;;;16.09;45.06
56719;BME280;42597;40.636;0.278;2023-05-18T01:40:34;97328.44;;;16.47;43.72
56719;BME280;42597;40.636;0.278;2023-05-18T01:43:09;97327.16;;;16.31;43.57
56719;BME280;42597;40.636;0.278;2023-05-18T01:45:38;97325.09;;;16.13;45.00
56719;BME280;42597;40.636;0.278;2023-05-18T01:48:06;97325.19;;;16.83;45.38
56719;BME280;42597;40.636;0.278;2023-05-18T01:50:35;97312.75;;;16.96;45.43
56719;BME280;42597;40.636;0.278;2023-05-18T01:53:15;97306.69;;;16.58;43.52
56719;BME280;42597;40.636;0.278;2023-05-18T01:55:44;97302.38;;;15.98;44.42
56719;BME280;42597;40.636;0.278;2023-05-18T01:58:13;97299.97;;;15.90;45.50
56719;BME280;42597;40.636;0.278;2023-05-18T02:00:39;97289.28;;;16.15;44.15
56719;BME280;42597;40.636;0.278;2023-05-18T02:03:05;97296.44;;;15.45;45.78
56719;BME280;42597;40.636;0.278;2023-05-18T02:05:30;97295.13;;;14.98;46.64
56719;BME280;42597;40.636;0.278;2023-05-18T02:07:56;97290.84;;;16.19;49.01
56719;BME280;42597;40.636;0.278;2023-05-18T02:10:22;97282.47;;;15.50;45.71
56719;BME280;42597;40.636;0.278;2023-05-18T02:12:47;97293.53;;;15.30;46.86
56719;BME280;42597;40.636;0.278;2023-05-18T02:15:16;97282.72;;;15.75;47.44
56719;BME280;42597;40.636;0.278;2023-05-18T02:17:42;97274.56;;;16.26;46.86
56719;BME280;42597;40.636;0.278;2023-05-18T02:20:08;97272.72;;;15.08;46.54
56719;BME280;42597;40.636;0.278;2023-05-18T02:22:35;97270.38;;;15.10;47.28
56719;BME280;42597;40.636;0.278;2023-05-18T02:25:01;97266.94;;;15.13;47.25
56719;BME280;42597;40.636;0.278;2023-05-18T02:27:27;97270.06;;;14.81;47.27
56719;BME280;42597;40.636;0.278;2023-05-18T02:29:53;97261.41;;;14.72;47.83
56719;BME280;42597;40.636;0.278;2023-05-18T02:32:19;97265.41;;;14.52;48.33
56719;BME280;42597;40.636;0.278;2023-05-18T02:34:45;97259.13;;;14.48;48.91
56719;BME280;42597;40.636;0.278;2023-05-18T02:37:11;97267.94;;;14.68;47.90
56719;BME280;42597;40.636;0.278;2023-05-18T02:39:38;97271.63;;;14.26;49.17
56719;BME280;42597;40.636;0.278;2023-05-18T02:42:04;97258.16;;;14.63;48.58
56719;BME280;42597;40.636;0.278;2023-05-18T02:44:30;97264.31;;;14.56;48.74
56719;BME280;42597;40.636;0.278;2023-05-18T02:46:55;97266.34;;;14.37;49.04
56719;BME280;42597;40.636;0.278;2023-05-18T02:49:21;97257.13;;;14.45;49.34
56719;BME280;42597;40.636;0.278;2023-05-18T02:51:46;97254.72;;;14.40;49.18
56719;BME280;42597;40.636;0.278;2023-05-18T02:54:12;97261.72;;;14.41;48.88
56719;BME280;42597;40.636;0.278;2023-05-18T02:56:38;97261.06;;;15.11;48.29
56719;BME280;42597;40.636;0.278;2023-05-18T02:59:05;97261.03;;;15.08;49.23
56719;BME280;42597;40.636;0.278;2023-05-18T03:01:31;97245.28;;;16.16;48.94
56719;BME280;42597;40.636;0.278;2023-05-18T03:04:00;97250.13;;;15.04;47.88
56719;BME280;42597;40.636;0.278;2023-05-18T03:06:26;97251.16;;;15.29;48.27
56719;BME280;42597;40.636;0.278;2023-05-18T03:08:52;97250.13;;;15.04;48.75
56719;BME280;42597;40.636;0.278;2023-05-18T03:11:21;97245.09;;;14.72;48.54
56719;BME280;42597;40.636;0.278;2023-05-18T03:13:47;97243.44;;;14.98;47.80
56719;BME280;42597;40.636;0.278;2023-05-18T03:16:13;97239.75;;;14.79;48.15
56719;BME280;42597;40.636;0.278;2023-05-18T03:18:39;97240.22;;;14.28;49.67
56719;BME280;42597;40.636;0.278;2023-05-18T03:21:04;97240.81;;;14.45;49.76
56719;BME280;42597;40.636;0.278;2023-05-18T03:23:30;97242.59;;;14.60;49.22
56719;BME280;42597;40.636;0.278;2023-05-18T03:25:56;97240.88;;;14.78;49.57
56719;BME280;42597;40.636;0.278;2023-05-18T03:28:21;97239.88;;;14.94;47.59
56719;BME280;42597;40.636;0.278;2023-05-18T03:30:47;97232.47;;;14.57;48.44
56719;BME280;42597;40.636;0.278;2023-05-18T03:33:13;97245.53;;;14.48;49.21
56719;BME280;42597;40.636;0.278;2023-05-18T03:35:39;97239.47;;;14.58;48.66
56719;BME280;42597;40.636;0.278;2023-05-18T03:38:05;97237.66;;;14.43;49.84
56719;BME280;42597;40.636;0.278;2023-05-18T03:40:31;97238.47;;;14.73;48.62
56719;BME280;42597;40.636;0.278;2023-05-18T03:42:57;97246.16;;;14.38;49.66
56719;BME280;42597;40.636;0.278;2023-05-18T03:45:23;97253.59;;;14.14;50.13
56719;BME280;42597;40.636;0.278;2023-05-18T03:47:48;97256.72;;;14.16;50.25
56719;BME280;42597;40.636;0.278;2023-05-18T03:50:14;97258.09;;;14.56;49.02
56719;BME280;42597;40.636;0.278;2023-05-18T03:52:42;97257.97;;;15.13;50.44
56719;BME280;42597;40.636;0.278;2023-05-18T03:55:09;97245.19;;;14.79;47.83
56719;BME280;42597;40.636;0.278;2023-05-18T03:57:35;97256.44;;;15.15;47.61
56719;BME280;42597;40.636;0.278;2023-05-18T04:00:04;97246.69;;;15.48;50.28
56719;BME280;42597;40.636;0.278;2023-05-18T04:02:33;97257.50;;;15.41;49.27
56719;BME280;42597;40.636;0.278;2023-05-18T04:05:00;97247.50;;;15.52;48.16
56719;BME280;42597;40.636;0.278;2023-05-18T04:07:26;97246.94;;;15.76;51.17
56719;BME280;42597;40.636;0.278;2023-05-18T04:09:54;97246.97;;;15.02;48.15
56719;BME280;42597;40.636;0.278;2023-05-18T04:12:20;97253.97;;;15.03;47.99
56719;BME280;42597;40.636;0.278;2023-05-18T04:14:45;97245.84;;;15.44;51.35
56719;BME280;42597;40.636;0.278;2023-05-18T04:17:18;97256.25;;;14.97;50.37
56719;BME280;42597;40.636;0.278;2023-05-18T04:19:47;97247.66;;;14.92;48.25
56719;BME280;42597;40.636;0.278;2023-05-18T04:22:13;97253.91;;;14.96;50.36
56719;BME280;42597;40.636;0.278;2023-05-18T04:24:39;97246.53;;;14.66;49.55
56719;BME280;42597;40.636;0.278;2023-05-18T04:27:08;97252.91;;;14.77;51.21
56719;BME280;42597;40.636;0.278;2023-05-18T04:29:34;97247.66;;;14.92;48.31
56719;BME280;42597;40.636;0.278;2023-05-18T04:32:04;97247.09;;;14.79;48.85
56719;BME280;42597;40.636;0.278;2023-05-18T04:34:32;97255.03;;;14.61;48.90
56719;BME280;42597;40.636;0.278;2023-05-18T04:37:00;97258.97;;;14.67;53.92
56719;BME280;42597;40.636;0.278;2023-05-18T04:39:27;97251.75;;;15.94;49.05
56719;BME280;42597;40.636;0.278;2023-05-18T04:41:53;97270.75;;;14.75;48.60
56719;BME280;42597;40.636;0.278;2023-05-18T04:44:29;97266.81;;;15.40;50.02
56719;BME280;42597;40.636;0.278;2023-05-18T04:46:58;97263.88;;;15.59;50.31
56719;BME280;42597;40.636;0.278;2023-05-18T04:49:24;97259.06;;;15.86;49.25
56719;BME280;42597;40.636;0.278;2023-05-18T04:51:52;97263.97;;;15.66;51.51
56719;BME280;42597;40.636;0.278;2023-05-18T04:54:25;97270.53;;;15.62;47.86
56719;BME280;42597;40.636;0.278;2023-05-18T04:56:51;97270.78;;;15.09;48.37
56719;BME280;42597;40.636;0.278;2023-05-18T04:59:17;97275.31;;;15.35;50.31
56719;BME280;42597;40.636;0.278;2023-05-18T05:01:43;97274.28;;;15.91;50.78
56719;BME280;42597;40.636;0.278;2023-05-18T05:04:09;97266.84;;;16.39;52.19
56719;BME280;42597;40.636;0.278;2023-05-18T05:06:35;97271.69;;;15.23;46.72
56719;BME280;42597;40.636;0.278;2023-05-18T05:09:00;97269.78;;;15.27;47.12
56719;BME280;42597;40.636;0.278;2023-05-18T05:11:26;97267.75;;;15.58;51.64
56719;BME280;42597;40.636;0.278;2023-05-18T05:13:51;97268.19;;;16.04;47.32
56719;BME280;42597;40.636;0.278;2023-05-18T05:16:17;97276.19;;;15.46;48.28
56719;BME280;42597;40.636;0.278;2023-05-18T05:18:42;97263.53;;;16.09;51.98
56719;BME280;42597;40.636;0.278;2023-05-18T05:21:08;97277.47;;;15.18;47.50
56719;BME280;42597;40.636;0.278;2023-05-18T05:23:34;97272.75;;;15.15;50.54
56719;BME280;42597;40.636;0.278;2023-05-18T05:26:00;97270.97;;;15.67;48.64
56719;BME280;42597;40.636;0.278;2023-05-18T05:28:25;97269.09;;;16.26;49.10
56719;BME280;42597;40.636;0.278;2023-05-18T05:30:51;97263.06;;;15.99;46.52
56719;BME280;42597;40.636;0.278;2023-05-18T05:33:17;97268.09;;;15.94;50.88
56719;BME280;42597;40.636;0.278;2023-05-18T05:35:42;97269.41;;;15.66;48.36
56719;BME280;42597;40.636;0.278;2023-05-18T05:38:08;97276.28;;;14.82;48.01
56719;BME280;42597;40.636;0.278;2023-05-18T05:40:34;97276.03;;;15.31;47.99
56719;BME280;42597;40.636;0.278;2023-05-18T05:43:00;97267.63;;;15.44;49.04
56719;BME280;42597;40.636;0.278;2023-05-18T05:45:25;97273.66;;;15.26;47.37
56719;BME280;42597;40.636;0.278;2023-05-18T05:47:52;97271.63;;;15.16;47.38
56719;BME280;42597;40.636;0.278;2023-05-18T05:50:18;97270.88;;;14.86;47.65
56719;BME280;42597;40.636;0.278;2023-05-18T05:52:44;97279.59;;;14.42;48.88
56719;BME280;42597;40.636;0.278;2023-05-18T05:55:09;97279.56;;;14.38;49.67
56719;BME280;42597;40.636;0.278;2023-05-18T05:57:35;97276.16;;;15.42;48.75
56719;BME280;42597;40.636;0.278;2023-05-18T06:00:01;97282.88;;;15.15;49.27
56719;BME280;42597;40.636;0.278;2023-05-18T06:02:28;97292.47;;;14.71;47.55
56719;BME280;42597;40.636;0.278;2023-05-18T06:04:54;97286.38;;;14.81;50.73
56719;BME280;42597;40.636;0.278;2023-05-18T06:07:19;97282.69;;;14.97;47.92
56719;BME280;42597;40.636;0.278;2023-05-18T06:09:45;97289.44;;;15.44;47.98
56719;BME280;42597;40.636;0.278;2023-05-18T06:12:10;97290.84;;;16.19;51.31
56719;BME280;42597;40.636;0.278;2023-05-18T06:14:36;97296.78;;;15.43;46.89
56719;BME280;42597;40.636;0.278;2023-05-18T06:17:01;97305.50;;;15.22;48.95
56719;BME280;42597;40.636;0.278;2023-05-18T06:19:27;97298.06;;;15.53;48.50
56719;BME280;42597;40.636;0.278;2023-05-18T06:21:52;97298.47;;;15.55;47.77
56719;BME280;42597;40.636;0.278;2023-05-18T06:24:18;97285.25;;;16.60;50.68
56719;BME280;42597;40.636;0.278;2023-05-18T06:26:43;97284.22;;;16.13;47.44
56719;BME280;42597;40.636;0.278;2023-05-18T06:29:09;97298.53;;;16.03;45.41
56719;BME280;42597;40.636;0.278;2023-05-18T06:31:34;97296.03;;;15.80;46.40
56719;BME280;42597;40.636;0.278;2023-05-18T06:34:00;97300.94;;;15.67;47.24
56719;BME280;42597;40.636;0.278;2023-05-18T06:36:25;97303.69;;;16.15;46.00
56719;BME280;42597;40.636;0.278;2023-05-18T06:38:51;97310.63;;;16.64;46.91
56719;BME280;42597;40.636;0.278;2023-05-18T06:41:17;97306.53;;;16.29;47.50
56719;BME280;42597;40.636;0.278;2023-05-18T06:43:42;97310.19;;;16.55;45.94
56719;BME280;42597;40.636;0.278;2023-05-18T06:46:08;97311.91;;;16.22;48.27
56719;BME280;42597;40.636;0.278;2023-05-18T06:48:34;97320.50;;;16.24;46.40
56719;BME280;42597;40.636;0.278;2023-05-18T06:51:00;97302.06;;;16.07;44.92
56719;BME280;42597;40.636;0.278;2023-05-18T06:53:26;97312.50;;;15.98;45.77
56719;BME280;42597;40.636;0.278;2023-05-18T06:55:52;97303.34;;;16.24;47.35
56719;BME280;42597;40.636;0.278;2023-05-18T06:58:17;97313.63;;;16.45;44.37
56719;BME280;42597;40.636;0.278;2023-05-18T07:00:43;97308.28;;;16.63;46.72
56719;BME280;42597;40.636;0.278;2023-05-18T07:03:08;97309.56;;;16.17;44.02
56719;BME280;42597;40.636;0.278;2023-05-18T07:05:34;97315.63;;;16.55;44.42
56719;BME280;42597;40.636;0.278;2023-05-18T07:08:00;97313.66;;;16.52;46.28
56719;BME280;42597;40.636;0.278;2023-05-18T07:10:25;97304.31;;;16.49;44.22
56719;BME280;42597;40.636;0.278;2023-05-18T07:12:53;97304.84;;;16.14;44.11
56719;BME280;42597;40.636;0.278;2023-05-18T07:15:19;97312.22;;;16.65;45.14
56719;BME280;42597;40.636;0.278;2023-05-18T07:17:45;97307.63;;;16.76;43.14
56719;BME280;42597;40.636;0.278;2023-05-18T07:20:10;97297.50;;;16.81;45.22
56719;BME280;42597;40.636;0.278;2023-05-18T07:22:36;97299.19;;;17.10;44.81
56719;BME280;42597;40.636;0.278;2023-05-18T07:25:02;97300.81;;;17.25;42.59
56719;BME280;42597;40.636;0.278;2023-05-18T07:27:27;97308.56;;;17.13;44.53
56719;BME280;42597;40.636;0.278;2023-05-18T07:29:53;97307.06;;;17.30;44.12
56719;BME280;42597;40.636;0.278;2023-05-18T07:32:18;97296.25;;;18.30;44.11
56719;BME280;42597;40.636;0.278;2023-05-18T07:34:44;97310.28;;;17.89;44.73
56719;BME280;42597;40.636;0.278;2023-05-18T07:37:11;97304.47;;;18.01;43.87
56719;BME280;42597;40.636;0.278;2023-05-18T07:39:37;97313.38;;;17.69;41.21
56719;BME280;42597;40.636;0.278;2023-05-18T07:42:03;97304.81;;;18.42;44.89
56719;BME280;42597;40.636;0.278;2023-05-18T07:44:28;97304.00;;;18.49;44.93
56719;BME280;42597;40.636;0.278;2023-05-18T07:46:54;97303.22;;;18.56;44.71
56719;BME280;42597;40.636;0.278;2023-05-18T07:49:19;97307.19;;;18.22;42.42
56719;BME280;42597;40.636;0.278;2023-05-18T07:51:48;97304.81;;;18.46;43.87
56719;BME280;42597;40.636;0.278;2023-05-18T07:54:13;97314.22;;;18.20;41.77
56719;BME280;42597;40.636;0.278;2023-05-18T07:56:39;97309.88;;;18.51;43.01
56719;BME280;42597;40.636;0.278;2023-05-18T07:59:05;97315.78;;;17.99;40.46
56719;BME280;42597;40.636;0.278;2023-05-18T08:01:31;97310.28;;;18.49;43.70
56719;BME280;42597;40.636;0.278;2023-05-18T08:03:57;97303.66;;;18.40;39.67
56719;BME280;42597;40.636;0.278;2023-05-18T08:06:22;97315.00;;;18.42;41.39
56719;BME280;42597;40.636;0.278;2023-05-18T08:08:48;97322.03;;;18.36;39.93
56719;BME280;42597;40.636;0.278;2023-05-18T08:11:14;97317.31;;;18.33;41.65
56719;BME280;42597;40.636;0.278;2023-05-18T08:13:39;97315.41;;;18.22;40.70
56719;BME280;42597;40.636;0.278;2023-05-18T08:16:05;97315.72;;;18.74;40.21
56719;BME280;42597;40.636;0.278;2023-05-18T08:18:31;97327.84;;;18.77;41.61
56719;BME280;42597;40.636;0.278;2023-05-18T08:20:56;97318.28;;;19.21;43.23
56719;BME280;42597;40.636;0.278;2023-05-18T08:23:23;97322.75;;;18.83;40.24
56719;BME280;42597;40.636;0.278;2023-05-18T08:25:49;97327.38;;;19.00;39.24
56719;BME280;42597;40.636;0.278;2023-05-18T08:28:15;97331.38;;;18.60;38.56
56719;BME280;42597;40.636;0.278;2023-05-18T08:30:41;97330.97;;;18.79;41.18
56719;BME280;42597;40.636;0.278;2023-05-18T08:33:07;97346.25;;;17.98;37.76
56719;BME280;42597;40.636;0.278;2023-05-18T08:35:33;97326.63;;;18.92;42.13
56719;BME280;42597;40.636;0.278;2023-05-18T08:37:59;97329.34;;;18.96;38.68
56719;BME280;42597;40.636;0.278;2023-05-18T08:40:32;97323.78;;;19.21;39.96
56719;BME280;42597;40.636;0.278;2023-05-18T08:43:21;97326.63;;;18.96;39.54
56719;BME280;42597;40.636;0.278;2023-05-18T08:46:20;97325.75;;;19.13;40.35
56719;BME280;42597;40.636;0.278;2023-05-18T08:48:46;97315.63;;;19.10;40.47
56719;BME280;42597;40.636;0.278;2023-05-18T08:51:18;97329.63;;;19.27;37.42
56719;BME280;42597;40.636;0.278;2023-05-18T08:53:44;97320.97;;;19.39;41.41
56719;BME280;42597;40.636;0.278;2023-05-18T08:56:14;97322.47;;;19.54;40.55
56719;BME280;42597;40.636;0.278;2023-05-18T08:58:47;97326.34;;;19.53;39.81
56719;BME280;42597;40.636;0.278;2023-05-18T09:01:13;97309.88;;;19.67;39.23
56719;BME280;42597;40.636;0.278;2023-05-18T09:03:39;97320.94;;;19.46;39.63
56719;BME280;42597;40.636;0.278;2023-05-18T09:06:06;97310.28;;;19.59;40.47
56719;BME280;42597;40.636;0.278;2023-05-18T09:08:32;97315.38;;;19.53;36.41
56719;BME280;42597;40.636;0.278;2023-05-18T09:11:00;97312.22;;;19.65;37.92
56719;BME280;42597;40.636;0.278;2023-05-18T09:13:26;97317.69;;;19.69;38.05
56719;BME280;42597;40.636;0.278;2023-05-18T09:15:52;97309.22;;;19.38;38.97
56719;BME280;42597;40.636;0.278;2023-05-18T09:18:17;97306.22;;;19.85;37.14
56719;BME280;42597;40.636;0.278;2023-05-18T09:20:44;97310.97;;;19.73;37.02
56719;BME280;42597;40.636;0.278;2023-05-18T09:23:13;97310.22;;;19.73;37.74
56719;BME280;42597;40.636;0.278;2023-05-18T09:25:43;97311.22;;;19.97;38.76
56719;BME280;42597;40.636;0.278;2023-05-18T09:28:11;97306.47;;;20.01;39.42
56719;BME280;42597;40.636;0.278;2023-05-18T09:30:42;97313.47;;;20.09;38.27
56719;BME280;42597;40.636;0.278;2023-05-18T09:33:17;97317.81;;;19.44;35.78
56719;BME280;42597;40.636;0.278;2023-05-18T09:35:44;97312.84;;;19.91;36.67
56719;BME280;42597;40.636;0.278;2023-05-18T09:38:11;97319.22;;;19.73;34.59
56719;BME280;42597;40.636;0.278;2023-05-18T09:40:44;97328.50;;;19.94;37.30
56719;BME280;42597;40.636;0.278;2023-05-18T09:43:10;97329.13;;;20.12;38.48
56719;BME280;42597;40.636;0.278;2023-05-18T09:45:41;97325.88;;;20.25;36.33
56719;BME280;42597;40.636;0.278;2023-05-18T09:48:08;97332.16;;;20.25;36.65
56719;BME280;42597;40.636;0.278;2023-05-18T09:50:34;97330.91;;;20.33;37.63
56719;BME280;42597;40.636;0.278;2023-05-18T09:53:02;97329.81;;;20.24;33.56
56719;BME280;42597;40.636;0.278;2023-05-18T09:55:30;97330.06;;;19.95;34.00
56719;BME280;42597;40.636;0.278;2023-05-18T09:57:56;97338.94;;;19.47;33.59
56719;BME280;42597;40.636;0.278;2023-05-18T10:00:21;97331.06;;;20.15;33.64
56719;BME280;42597;40.636;0.278;2023-05-18T10:02:48;97324.44;;;20.09;33.59
56719;BME280;42597;40.636;0.278;2023-05-18T10:05:23;97328.53;;;20.39;35.44
56719;BME280;42597;40.636;0.278;2023-05-18T10:07:55;97323.72;;;20.50;36.15
56719;BME280;42597;40.636;0.278;2023-05-18T10:10:26;97319.44;;;20.45;35.44
56719;BME280;42597;40.636;0.278;2023-05-18T10:12:54;97323.41;;;20.37;34.66
56719;BME280;42597;40.636;0.278;2023-05-18T10:15:22;97324.59;;;20.40;33.72
56719;BME280;42597;40.636;0.278;2023-05-18T10:17:49;97317.31;;;20.19;33.51
56719;BME280;42597;40.636;0.278;2023-05-18T10:20:21;97318.31;;;20.39;35.08
56719;BME280;42597;40.636;0.278;2023-05-18T10:22:54;97324.09;;;20.52;35.82
56719;BME280;42597;40.636;0.278;2023-05-18T10:25:22;97321.06;;;20.39;33.04
56719;BME280;42597;40.636;0.278;2023-05-18T10:27:55;97319.41;;;20.49;33.61
56719;BME280;42597;40.636;0.278;2023-05-18T10:30:22;97322.84;;;20.60;33.45
56719;BME280;42597;40.636;0.278;2023-05-18T10:32:48;97297.66;;;20.69;33.63
56719;BME280;42597;40.636;0.278;2023-05-18T10:35:15;97311.31;;;20.76;32.76
56719;BME280;42597;40.636;0.278;2023-05-18T10:37:44;97305.53;;;21.01;37.08
56719;BME280;42597;40.636;0.278;2023-05-18T10:40:12;97309.91;;;20.99;32.64
56719;BME280;42597;40.636;0.278;2023-05-18T10:42:39;97299.97;;;21.08;32.98
56719;BME280;42597;40.636;0.278;2023-05-18T10:45:06;97300.00;;;21.05;31.82
56719;BME280;42597;40.636;0.278;2023-05-18T10:47:35;97302.06;;;21.28;33.66
56719;BME280;42597;40.636;0.278;2023-05-18T10:50:04;97304.53;;;21.18;32.69
56719;BME280;42597;40.636;0.278;2023-05-18T10:52:31;97302.06;;;21.28;34.06
56719;BME280;42597;40.636;0.278;2023-05-18T10:55:00;97289.44;;;21.34;36.61
56719;BME280;42597;40.636;0.278;2023-05-18T10:57:29;97287.91;;;21.33;32.87
56719;BME280;42597;40.636;0.278;2023-05-18T10:59:58;97282.31;;;21.40;31.81
56719;BME280;42597;40.636;0.278;2023-05-18T11:02:25;97287.25;;;21.52;33.60
56719;BME280;42597;40.636;0.278;2023-05-18T11:04:52;97277.38;;;21.55;32.98
56719;BME280;42597;40.636;0.278;2023-05-18T11:07:19;97267.31;;;21.44;31.43
56719;BME280;42597;40.636;0.278;2023-05-18T11:09:47;97262.69;;;21.38;30.92
56719;BME280;42597;40.636;0.278;2023-05-18T11:12:15;97264.56;;;21.72;31.74
56719;BME280;42597;40.636;0.278;2023-05-18T11:14:52;97268.44;;;21.74;31.18
56719;BME280;42597;40.636;0.278;2023-05-18T11:17:22;97254.50;;;21.61;30.49
56719;BME280;42597;40.636;0.278;2023-05-18T11:22:48;97256.13;;;21.59;32.57
56719;BME280;42597;40.636;0.278;2023-05-18T11:27:51;97250.75;;;20.90;30.01
56719;BME280;42597;40.636;0.278;2023-05-18T11:30:43;97257.19;;;21.07;30.18
56719;BME280;42597;40.636;0.278;2023-05-18T11:39:01;97240.84;;;21.81;30.43
56719;BME280;42597;40.636;0.278;2023-05-18T11:47:00;97239.63;;;21.59;32.76
56719;BME280;42597;40.636;0.278;2023-05-18T11:49:35;97246.50;;;21.71;30.03
56719;BME280;42597;40.636;0.278;2023-05-18T11:54:39;97244.19;;;21.42;29.72
56719;BME280;42597;40.636;0.278;2023-05-18T11:57:06;97243.78;;;21.43;28.71
56719;BME280;42597;40.636;0.278;2023-05-18T11:59:36;97250.31;;;21.53;29.15
56719;BME280;42597;40.636;0.278;2023-05-18T12:02:02;97247.44;;;21.60;29.16
56719;BME280;42597;40.636;0.278;2023-05-18T12:04:29;97243.75;;;21.71;31.16
56719;BME280;42597;40.636;0.278;2023-05-18T12:06:56;97231.91;;;21.74;30.52
56719;BME280;42597;40.636;0.278;2023-05-18T12:09:23;97225.47;;;21.84;32.78
56719;BME280;42597;40.636;0.278;2023-05-18T12:11:49;97232.59;;;21.54;33.67
56719;BME280;42597;40.636;0.278;2023-05-18T12:14:17;97232.66;;;21.51;33.77
56719;BME280;42597;40.636;0.278;2023-05-18T12:16:44;97232.06;;;21.39;33.91
56719;BME280;42597;40.636;0.278;2023-05-18T12:19:10;97226.19;;;21.07;35.11
56719;BME280;42597;40.636;0.278;2023-05-18T12:21:36;97217.41;;;21.46;34.84
56719;BME280;42597;40.636;0.278;2023-05-18T12:24:01;97225.88;;;20.70;35.26
56719;BME280;42597;40.636;0.278;2023-05-18T12:26:28;97226.13;;;21.10;34.53
56719;BME280;42597;40.636;0.278;2023-05-18T12:28:54;97223.28;;;21.17;35.42
56719;BME280;42597;40.636;0.278;2023-05-18T12:31:21;97218.81;;;21.31;35.46
56719;BME280;42597;40.636;0.278;2023-05-18T12:33:47;97219.25;;;20.99;35.81
56719;BME280;42597;40.636;0.278;2023-05-18T12:36:13;97221.75;;;21.47;35.34
56719;BME280;42597;40.636;0.278;2023-05-18T12:38:39;97221.50;;;21.61;35.79
56719;BME280;42597;40.636;0.278;2023-05-18T12:41:05;97221.66;;;21.51;35.78
56719;BME280;42597;40.636;0.278;2023-05-18T12:43:35;97214.63;;;21.50;36.48
56719;BME280;42597;40.636;0.278;2023-05-18T12:46:02;97218.50;;;21.52;36.10
56719;BME280;42597;40.636;0.278;2023-05-18T12:48:35;97218.34;;;21.05;36.13
56719;BME280;42597;40.636;0.278;2023-05-18T12:51:01;97211.28;;;21.08;36.93
56719;BME280;42597;40.636;0.278;2023-05-18T12:53:40;97222.03;;;20.95;36.05
56719;BME280;42597;40.636;0.278;2023-05-18T12:56:05;97216.81;;;21.35;35.56
56719;BME280;42597;40.636;0.278;2023-05-18T12:58:34;97227.50;;;21.26;35.25
56719;BME280;42597;40.636;0.278;2023-05-18T13:01:06;97221.84;;;21.09;35.18
56719;BME280;42597;40.636;0.278;2023-05-18T13:03:33;97214.06;;;21.35;34.61
56719;BME280;42597;40.636;0.278;2023-05-18T13:06:06;97230.06;;;21.09;34.70
56719;BME280;42597;40.636;0.278;2023-05-18T13:08:33;97210.94;;;21.33;36.74
56719;BME280;42597;40.636;0.278;2023-05-18T13:11:01;97221.22;;;21.25;34.82
56719;BME280;42597;40.636;0.278;2023-05-18T13:13:27;97219.28;;;20.95;34.55
56719;BME280;42597;40.636;0.278;2023-05-18T13:15:52;97219.81;;;21.13;34.14
56719;BME280;42597;40.636;0.278;2023-05-18T13:18:18;97216.94;;;20.93;34.44
56719;BME280;42597;40.636;0.278;2023-05-18T13:20:46;97214.91;;;21.28;34.78
56719;BME280;42597;40.636;0.278;2023-05-18T13:23:15;97218.81;;;21.00;34.86
56719;BME280;42597;40.636;0.278;2023-05-18T13:25:41;97218.00;;;21.03;35.43